Monday, December 22, 2014
07:03 UTC
  |  Log In   |  Register Free
Airport Search:

Lonesome Pine Airport
(KLNP)

Lonesome Pine Airport Diagram
No Airport Diagram Available

FAA data valid effective November 13, 2014 - January 08, 2015 (unless otherwise noted).

 
 
 
 
 
 
 
 
 
 
 
 
 
 

Current Aviation Weather for Lonesome Pine Airport (KLNP)

The most recent METAR observation for KLNP was updated at: 2116
METAR Summary (Translated METAR)
KLNP
182055Z AUTO 35007KT 10SM OVC050 03/M05 A3009 RMK AO2
KVJI
182115Z AUTO 29003KT 10SM OVC050 05/M06 A3010 RMK AO2 T00501058
(29.9 nm SE from KLNP)
KTRI
182053Z 26004KT 10SM SCT032 OVC055 05/M03 A3012 RMK AO2 SLP199 T00501033 55006
(31.3 nm SE from KLNP)
TAF Summary (Translated TAF)
KTRI
(31.3 nm SE from KLNP)
220527Z 2206/2306 VRB03KT P6SM BKN035 FM221400 10005KT P6SM BKN060 FM230100 09003KT P6SM VCSH SCT025 OVC050
  Airport Weather Conditions for KLNP

 Current Weather at LNP
37° F
Fair
Southeast winds at 6.9 mph
LNP NOAA Radar

Pressure: 30.08 in
Humidity: 81%
Wind: Southeast at 6.9 MPH (6 KT)
Dew Point: 32.0°F
Visibility: 10.00 mi


Airport Weather Forecast for KLNP

Translated METAR and TAF for KLNP
Translated METAR for KLNP (0704 UTC 22 December 2014)
found at http://aviationweather.gov/adds/metars/
 
METAR text: KLNP 220655Z AUTO 19003KT 10SM CLR 02/00 A3008 RMK AO2
Conditions at: KLNP (WISE/LONESOME PI, VA, US) observed 0655 UTC 22 December 2014
Temperature: 2.0°C (36°F)
Dewpoint: 0.0°C (32°F) [RH = 87%]
Pressure (altimeter): 30.08 inches Hg (1018.7 mb)
Winds: from the S (190 degrees) at 3 MPH (3 knots; 1.6 m/s)
Visibility: 10 or more miles (16+ km)
Ceiling: at least 12,000 feet AGL
Clouds: sky clear below 12,000 feet AGL
Weather: automated observation with no human augmentation;
there may or may not be significant weather present at this time
Translated TAF for KLNP

There is no translated TAF available for this airport

Find All Airport Services Find A Hotel Find A Rental Car Find A Golf Course Find A Restaurant $100 Hamburger



FBO's on the Field
FBO Company Facility Photos Services Transportation Aviation Fuel Prices: Prices include tax
Catering Weather Repair Courtesy Rental Type 100LL JetA JetA+ MOGAS 8087
 
Lonesome Pine Airport

This FBO has not yet been rated
FS:Shell
Last Updated: Dec-11
Login to update fuel prices
SS:
Contact Lonesome Pine AirportMore FBO Information
 
Add another FBO Facility Photos Catering Weather Repair Courtesy Rental Type 100LL JetA JetA+ MOGAS 8087
Services Transportation Aviation Fuel Prices: Prices include tax


model-print
model-print
model-print
model-print